createdAt,value
2019-05-23T00:00:12.832Z,12.01
2019-05-23T00:01:12.837Z,12.04
2019-05-23T00:02:12.852Z,11.97
2019-05-23T00:03:12.858Z,11.89
2019-05-23T00:04:12.864Z,11.89
2019-05-23T00:05:12.888Z,11.77
2019-05-23T00:06:12.900Z,11.71
2019-05-23T00:07:12.886Z,11.71
2019-05-23T00:08:12.895Z,11.75
2019-05-23T00:09:12.909Z,11.71
2019-05-23T00:10:12.914Z,11.68
2019-05-23T00:11:12.920Z,11.61
2019-05-23T00:12:12.927Z,11.54
2019-05-23T00:13:12.936Z,11.62
2019-05-23T00:14:12.943Z,11.70
2019-05-23T00:15:13.026Z,11.50
2019-05-23T00:16:12.956Z,11.54
2019-05-23T00:17:12.969Z,11.49
2019-05-23T00:18:12.990Z,11.49
2019-05-23T00:19:12.983Z,11.59
2019-05-23T00:20:12.991Z,11.52
2019-05-23T00:21:13.001Z,11.54
2019-05-23T00:22:13.016Z,11.54
2019-05-23T00:23:13.018Z,11.56
2019-05-23T00:24:13.019Z,11.53
2019-05-23T00:25:13.028Z,11.57
2019-05-23T00:26:13.033Z,11.71
2019-05-23T00:27:13.055Z,11.54
2019-05-23T00:28:13.047Z,11.43
2019-05-23T00:29:13.057Z,11.50
2019-05-23T00:30:13.065Z,11.39
2019-05-23T00:31:13.074Z,11.47
2019-05-23T00:32:13.081Z,11.49
2019-05-23T00:33:13.091Z,11.39
2019-05-23T00:34:13.093Z,11.36
2019-05-23T00:35:13.107Z,11.41
2019-05-23T00:36:13.111Z,11.44
2019-05-23T00:37:13.117Z,11.32
2019-05-23T00:38:13.126Z,11.32
2019-05-23T00:39:13.145Z,11.32
2019-05-23T00:40:13.141Z,11.29
2019-05-23T00:41:13.151Z,11.20
2019-05-23T00:42:13.152Z,11.24
2019-05-23T00:43:13.166Z,11.19
2019-05-23T00:44:13.182Z,11.14
2019-05-23T00:45:13.183Z,11.11
2019-05-23T00:46:13.189Z,11.06
2019-05-23T00:47:13.194Z,11.06
2019-05-23T00:48:13.208Z,11.09
2019-05-23T00:49:13.219Z,11.06
2019-05-23T00:50:13.216Z,11.01
2019-05-23T00:51:13.258Z,11.06
2019-05-23T00:52:13.232Z,11.07
2019-05-23T00:53:13.240Z,11.01
2019-05-23T00:54:13.262Z,10.95
2019-05-23T00:55:13.256Z,11.09
2019-05-23T00:56:13.290Z,11.06
2019-05-23T00:57:13.271Z,11.02
2019-05-23T00:58:13.275Z,11.07
2019-05-23T00:59:26.048Z,11.06
2019-05-23T01:00:13.300Z,10.98
2019-05-23T01:01:13.304Z,11.02
2019-05-23T01:02:13.318Z,11.03
2019-05-23T01:03:13.316Z,11.06
2019-05-23T01:04:13.329Z,11.01
2019-05-23T01:05:13.334Z,10.98
2019-05-23T01:06:13.338Z,10.95
2019-05-23T01:07:13.349Z,10.94
2019-05-23T01:08:13.358Z,10.81
2019-05-23T01:09:13.362Z,10.88
2019-05-23T01:10:13.369Z,10.88
2019-05-23T01:11:13.379Z,10.99
2019-05-23T01:12:13.384Z,10.83
2019-05-23T01:13:13.394Z,10.83
2019-05-23T01:14:13.398Z,10.86
2019-05-23T01:15:13.406Z,10.96
2019-05-23T01:16:13.415Z,11.02
2019-05-23T01:17:13.466Z,10.98
2019-05-23T01:18:13.428Z,10.92
2019-05-23T01:19:13.437Z,10.86
2019-05-23T01:20:13.441Z,10.81
2019-05-23T01:21:13.453Z,10.83
2019-05-23T01:22:13.555Z,10.83
2019-05-23T01:23:13.468Z,10.81
2019-05-23T01:24:13.475Z,10.78
2019-05-23T01:25:13.485Z,10.70
2019-05-23T01:26:13.491Z,10.70
2019-05-23T01:27:13.488Z,10.73
2019-05-23T01:28:13.504Z,10.70
2019-05-23T01:29:13.516Z,10.76
2019-05-23T01:30:13.518Z,10.76
2019-05-23T01:31:13.527Z,10.78
2019-05-23T01:32:13.537Z,10.73
2019-05-23T01:33:13.538Z,10.74
2019-05-23T01:34:13.553Z,10.70
2019-05-23T01:35:13.559Z,10.60
2019-05-23T01:36:13.568Z,10.66
2019-05-23T01:37:13.573Z,10.60
2019-05-23T01:38:13.578Z,10.58
2019-05-23T01:39:13.590Z,10.56
2019-05-23T01:40:13.600Z,10.42
2019-05-23T01:41:13.602Z,10.40
2019-05-23T01:42:13.611Z,10.40
2019-05-23T01:43:13.612Z,10.36
2019-05-23T01:44:13.621Z,10.39
2019-05-23T01:45:13.630Z,10.42
2019-05-23T01:46:13.637Z,10.39
2019-05-23T01:47:13.647Z,10.30
2019-05-23T01:48:13.653Z,10.51
2019-05-23T01:49:13.656Z,10.39
2019-05-23T01:50:13.666Z,10.36
2019-05-23T01:51:13.676Z,10.46
2019-05-23T01:52:13.687Z,10.36
2019-05-23T01:53:13.682Z,10.37
2019-05-23T01:54:13.699Z,10.39
2019-05-23T01:55:13.711Z,10.30
2019-05-23T01:56:13.715Z,10.40
2019-05-23T01:57:13.724Z,10.26
2019-05-23T01:58:13.723Z,10.37
2019-05-23T01:59:13.735Z,10.40
2019-05-23T02:00:13.753Z,10.39
2019-05-23T02:01:13.748Z,10.39
2019-05-23T02:02:13.758Z,10.37
2019-05-23T02:03:13.767Z,10.30
2019-05-23T02:04:13.779Z,10.22
2019-05-23T02:05:13.786Z,10.22
2019-05-23T02:06:13.784Z,10.19
2019-05-23T02:07:13.796Z,10.17
2019-05-23T02:08:13.837Z,10.19
2019-05-23T02:09:13.806Z,10.24
2019-05-23T02:10:13.995Z,10.22
2019-05-23T02:11:13.818Z,10.18
2019-05-23T02:12:13.833Z,10.14
2019-05-23T02:13:13.839Z,10.33
2019-05-23T02:14:13.844Z,10.34
2019-05-23T02:15:13.852Z,10.26
2019-05-23T02:16:13.865Z,10.28
2019-05-23T02:17:13.865Z,10.33
2019-05-23T02:18:13.891Z,10.33
2019-05-23T02:19:13.986Z,10.25
2019-05-23T02:20:13.886Z,10.30
2019-05-23T02:21:13.897Z,10.30
2019-05-23T02:22:13.900Z,10.22
2019-05-23T02:23:13.908Z,10.32
2019-05-23T02:24:13.929Z,10.22
2019-05-23T02:25:13.989Z,10.24
2019-05-23T02:26:13.939Z,10.21
2019-05-23T02:27:13.939Z,10.22
2019-05-23T02:28:13.949Z,10.15
2019-05-23T02:29:13.955Z,10.19
2019-05-23T02:30:32.289Z,10.07
2019-05-23T02:31:13.967Z,10.10
2019-05-23T02:32:13.975Z,10.04
2019-05-23T02:33:13.994Z,10.10
2019-05-23T02:34:13.993Z,10.09
2019-05-23T02:35:13.998Z,10.06
2019-05-23T02:36:14.011Z,10.03
2019-05-23T02:37:14.010Z,10.03
2019-05-23T02:38:14.022Z,9.99
2019-05-23T02:39:14.027Z,10.07
2019-05-23T02:40:14.036Z,10.03
2019-05-23T02:41:14.061Z,10.04
2019-05-23T02:42:14.049Z,10.07
2019-05-23T02:43:14.059Z,10.09
2019-05-23T02:44:14.062Z,10.07
2019-05-23T02:45:14.069Z,10.09
2019-05-23T02:46:14.081Z,10.15
2019-05-23T02:47:14.082Z,10.12
2019-05-23T02:48:14.091Z,10.22
2019-05-23T02:49:14.096Z,10.26
2019-05-23T02:50:14.105Z,10.33
2019-05-23T02:51:14.115Z,10.34
2019-05-23T02:52:14.116Z,10.33
2019-05-23T02:53:14.131Z,10.39
2019-05-23T02:54:14.133Z,10.37
2019-05-23T02:55:14.143Z,10.46
2019-05-23T02:56:14.149Z,10.34
2019-05-23T02:57:14.158Z,10.40
2019-05-23T02:58:14.160Z,10.36
2019-05-23T02:59:14.173Z,10.39
2019-05-23T03:00:14.180Z,10.42
2019-05-23T03:01:14.185Z,10.53
2019-05-23T03:02:14.196Z,10.40
2019-05-23T03:03:14.198Z,10.36
2019-05-23T03:04:14.204Z,10.36
2019-05-23T03:05:14.213Z,10.44
2019-05-23T03:06:14.219Z,10.34
2019-05-23T03:07:14.225Z,10.33
2019-05-23T03:08:14.233Z,10.32
2019-05-23T03:09:14.238Z,10.26
2019-05-23T03:10:14.244Z,10.32
2019-05-23T03:11:14.259Z,10.36
2019-05-23T03:12:14.263Z,10.30
2019-05-23T03:13:14.274Z,10.30
2019-05-23T03:14:14.279Z,10.25
2019-05-23T03:15:14.289Z,10.30
2019-05-23T03:16:14.288Z,10.26
2019-05-23T03:17:14.301Z,10.33
2019-05-23T03:18:14.306Z,10.33
2019-05-23T03:19:14.314Z,10.28
2019-05-23T03:20:14.321Z,10.26
2019-05-23T03:21:14.341Z,10.28
2019-05-23T03:22:14.338Z,10.33
2019-05-23T03:23:14.345Z,10.28
2019-05-23T03:24:14.354Z,10.36
2019-05-23T03:25:14.357Z,10.26
2019-05-23T03:26:14.364Z,10.33
2019-05-23T03:27:14.377Z,10.26
2019-05-23T03:28:14.375Z,10.30
2019-05-23T03:29:14.388Z,10.36
2019-05-23T03:30:14.416Z,10.34
2019-05-23T03:31:29.453Z,10.32
2019-05-23T03:33:18.432Z,10.22
2019-05-23T03:34:18.451Z,10.30
2019-05-23T03:36:22.429Z,10.22
2019-05-23T03:37:22.425Z,10.30
2019-05-23T03:39:26.446Z,10.32
2019-05-23T03:40:26.446Z,10.24
2019-05-23T03:42:19.866Z,10.25
2019-05-23T03:43:19.860Z,10.26
2019-05-23T03:45:23.860Z,10.36
2019-05-23T03:46:23.870Z,10.26
2019-05-23T03:48:27.879Z,10.28
2019-05-23T03:49:27.863Z,10.32
2019-05-23T03:51:32.362Z,10.36
2019-05-23T03:52:32.359Z,10.33
2019-05-23T03:54:36.829Z,10.30
2019-05-23T03:55:36.841Z,10.34
2019-05-23T03:57:41.324Z,10.30
2019-05-23T03:58:41.319Z,10.33
2019-05-23T04:00:45.804Z,10.28
2019-05-23T04:01:48.231Z,10.30
2019-05-23T04:03:50.298Z,10.21
2019-05-23T04:04:50.298Z,10.19
2019-05-23T04:06:54.783Z,10.24
2019-05-23T04:07:54.783Z,10.22
2019-05-23T04:09:58.780Z,10.17
2019-05-23T04:10:58.787Z,10.12
2019-05-23T04:13:02.794Z,10.12
2019-05-23T04:14:02.790Z,10.18
2019-05-23T04:16:06.793Z,10.21
2019-05-23T04:17:06.798Z,10.26
2019-05-23T04:19:11.287Z,10.25
2019-05-23T04:20:11.281Z,10.22
2019-05-23T04:22:04.313Z,10.30
2019-05-23T04:23:04.225Z,10.34
2019-05-23T04:25:08.709Z,10.39
2019-05-23T04:26:08.707Z,10.42
2019-05-23T04:28:12.718Z,10.36
2019-05-23T04:29:12.717Z,10.33
2019-05-23T04:30:12.733Z,10.40
2019-05-23T04:31:13.541Z,10.43
2019-05-23T04:32:12.735Z,10.47
2019-05-23T04:33:14.433Z,10.40
2019-05-23T04:34:20.436Z,10.51
2019-05-23T04:36:17.265Z,10.43
2019-05-23T04:37:17.286Z,10.43
2019-05-23T04:39:21.768Z,10.58
2019-05-23T04:40:21.760Z,10.55
2019-05-23T04:41:21.773Z,10.52
2019-05-23T04:42:21.777Z,10.55
2019-05-23T04:43:21.784Z,10.55
2019-05-23T04:44:21.806Z,10.59
2019-05-23T04:45:21.809Z,10.60
2019-05-23T04:46:21.807Z,10.71
2019-05-23T04:47:21.811Z,10.66
2019-05-23T04:48:21.823Z,10.66
2019-05-23T04:49:21.844Z,10.66
2019-05-23T04:50:21.848Z,10.65
2019-05-23T04:51:21.849Z,10.70
2019-05-23T04:52:21.855Z,10.66
2019-05-23T04:53:21.863Z,10.73
2019-05-23T04:54:21.865Z,10.71
2019-05-23T04:55:21.876Z,10.77
2019-05-23T04:56:21.880Z,10.81
2019-05-23T04:57:21.889Z,10.80
2019-05-23T04:58:21.892Z,10.86
2019-05-23T04:59:21.906Z,10.88
2019-05-23T05:00:21.906Z,10.84
2019-05-23T05:01:21.920Z,10.83
2019-05-23T05:02:26.090Z,10.86
2019-05-23T05:03:21.928Z,10.86
2019-05-23T05:04:21.935Z,10.81
2019-05-23T05:05:21.950Z,10.86
2019-05-23T05:06:21.955Z,10.98
2019-05-23T05:07:21.960Z,10.94
2019-05-23T05:08:21.964Z,10.94
2019-05-23T05:09:21.976Z,11.02
2019-05-23T05:10:21.980Z,11.02
2019-05-23T05:11:21.989Z,11.09
2019-05-23T05:12:21.997Z,11.01
2019-05-23T05:13:22.001Z,11.02
2019-05-23T05:14:22.037Z,11.01
2019-05-23T05:15:22.036Z,11.10
2019-05-23T05:16:22.023Z,11.06
2019-05-23T05:17:22.035Z,11.07
2019-05-23T05:18:22.046Z,11.17
2019-05-23T05:19:22.045Z,11.09
2019-05-23T05:20:22.117Z,11.07
2019-05-23T05:21:22.060Z,11.16
2019-05-23T05:22:22.065Z,11.17
2019-05-23T05:23:22.077Z,11.16
2019-05-23T05:24:22.085Z,11.13
2019-05-23T05:25:22.091Z,11.27
2019-05-23T05:26:22.106Z,11.17
2019-05-23T05:27:22.107Z,11.21
2019-05-23T05:28:22.113Z,11.20
2019-05-23T05:29:22.123Z,11.21
2019-05-23T05:30:22.125Z,11.24
2019-05-23T05:31:22.136Z,11.20
2019-05-23T05:32:22.138Z,11.24
2019-05-23T05:33:22.147Z,11.24
2019-05-23T05:34:22.155Z,11.19
2019-05-23T05:35:22.165Z,11.19
2019-05-23T05:36:22.181Z,11.14
2019-05-23T05:37:22.177Z,11.17
2019-05-23T05:38:22.188Z,11.14
2019-05-23T05:39:22.192Z,11.24
2019-05-23T05:40:22.202Z,11.25
2019-05-23T05:41:22.220Z,11.24
2019-05-23T05:42:22.218Z,11.20
2019-05-23T05:43:22.227Z,11.29
2019-05-23T05:44:22.482Z,11.35
2019-05-23T05:45:22.238Z,11.38
2019-05-23T05:46:22.241Z,11.35
2019-05-23T05:47:22.248Z,11.43
2019-05-23T05:48:22.261Z,11.46
2019-05-23T05:49:22.268Z,11.50
2019-05-23T05:50:22.278Z,11.54
2019-05-23T05:51:22.285Z,11.59
2019-05-23T05:52:22.289Z,11.61
2019-05-23T05:53:22.297Z,11.75
2019-05-23T05:54:22.304Z,11.75
2019-05-23T05:55:22.319Z,11.77
2019-05-23T05:56:22.331Z,11.78
2019-05-23T05:57:22.327Z,11.85
2019-05-23T05:58:22.342Z,11.85
2019-05-23T05:59:22.338Z,11.82
2019-05-23T06:00:22.349Z,11.90
2019-05-23T06:01:33.518Z,12.04
2019-05-23T06:02:22.364Z,12.05
2019-05-23T06:03:22.370Z,12.13
2019-05-23T06:04:22.376Z,12.12
2019-05-23T06:05:22.389Z,12.12
2019-05-23T06:06:22.394Z,12.16
2019-05-23T06:07:22.400Z,12.19
2019-05-23T06:08:22.457Z,12.27
2019-05-23T06:09:22.416Z,12.27
2019-05-23T06:10:22.429Z,12.30
2019-05-23T06:11:22.431Z,12.31
2019-05-23T06:12:22.444Z,12.31
2019-05-23T06:13:22.444Z,12.41
2019-05-23T06:14:22.450Z,12.38
2019-05-23T06:15:22.457Z,12.44
2019-05-23T06:16:22.469Z,12.44
2019-05-23T06:17:22.474Z,12.44
2019-05-23T06:18:22.487Z,12.48
2019-05-23T06:19:22.497Z,12.44
2019-05-23T06:20:22.499Z,12.56
2019-05-23T06:21:22.506Z,12.54
2019-05-23T06:22:22.554Z,12.69
2019-05-23T06:23:22.525Z,12.64
2019-05-23T06:24:39.284Z,12.70
2019-05-23T06:25:22.537Z,12.77
2019-05-23T06:26:22.554Z,12.74
2019-05-23T06:27:22.552Z,12.74
2019-05-23T06:28:22.569Z,12.75
2019-05-23T06:29:22.903Z,12.82
2019-05-23T06:30:22.576Z,12.87
2019-05-23T06:31:22.584Z,12.87
2019-05-23T06:32:22.592Z,13.04
2019-05-23T06:33:24.352Z,12.95
2019-05-23T06:34:22.608Z,12.99
2019-05-23T06:35:22.613Z,13.00
2019-05-23T06:36:22.625Z,13.04
2019-05-23T06:37:22.630Z,13.07
2019-05-23T06:38:22.640Z,13.17
2019-05-23T06:39:22.645Z,13.14
2019-05-23T06:40:22.661Z,13.21
2019-05-23T06:41:22.662Z,13.14
2019-05-23T06:42:22.807Z,13.22
2019-05-23T06:43:22.691Z,13.32
2019-05-23T06:44:22.698Z,13.24
2019-05-23T06:45:22.716Z,13.29
2019-05-23T06:46:22.711Z,13.38
2019-05-23T06:47:22.712Z,13.37
2019-05-23T06:48:22.715Z,13.41
2019-05-23T06:49:22.728Z,13.41
2019-05-23T06:50:22.740Z,13.44
2019-05-23T06:51:22.740Z,13.49
2019-05-23T06:52:22.744Z,13.46
2019-05-23T06:53:22.781Z,13.54
2019-05-23T06:54:22.761Z,13.61
2019-05-23T06:55:22.767Z,13.59
2019-05-23T06:56:22.777Z,13.70
2019-05-23T06:57:22.821Z,13.63
2019-05-23T06:58:23.316Z,13.67
2019-05-23T06:59:22.798Z,13.67
2019-05-23T07:00:22.804Z,13.69
2019-05-23T07:01:22.816Z,13.83
2019-05-23T07:02:22.826Z,13.80
2019-05-23T07:03:40.050Z,13.92
2019-05-23T07:04:22.840Z,13.81
2019-05-23T07:05:22.854Z,13.81
2019-05-23T07:06:22.857Z,13.96
2019-05-23T07:07:22.922Z,13.98
2019-05-23T07:08:25.291Z,14.04
2019-05-23T07:09:22.881Z,14.19
2019-05-23T07:10:22.899Z,14.21
2019-05-23T07:11:22.894Z,14.37
2019-05-23T07:12:22.903Z,14.38
2019-05-23T07:13:22.912Z,14.39
2019-05-23T07:14:22.921Z,14.37
2019-05-23T07:15:22.929Z,14.60
2019-05-23T07:16:22.939Z,14.54
2019-05-23T07:17:22.941Z,14.67
2019-05-23T07:18:22.949Z,14.74
2019-05-23T07:19:22.955Z,14.83
2019-05-23T07:20:22.976Z,14.81
2019-05-23T07:21:22.972Z,14.99
2019-05-23T07:22:22.983Z,14.93
2019-05-23T07:23:22.996Z,15.05
2019-05-23T07:24:22.999Z,15.08
2019-05-23T07:25:23.009Z,15.06
2019-05-23T07:26:23.021Z,15.12
2019-05-23T07:27:23.024Z,15.13
2019-05-23T07:28:23.046Z,15.11
2019-05-23T07:29:23.064Z,15.24
2019-05-23T07:30:23.084Z,15.26
2019-05-23T07:31:23.066Z,15.39
2019-05-23T07:32:23.064Z,15.36
2019-05-23T07:33:23.076Z,15.43
2019-05-23T07:34:23.086Z,15.41
2019-05-23T07:35:23.094Z,15.43
2019-05-23T07:36:23.102Z,15.49
2019-05-23T07:37:23.108Z,15.42
2019-05-23T07:38:23.117Z,15.43
2019-05-23T07:39:23.125Z,15.51
2019-05-23T07:40:23.152Z,15.49
2019-05-23T07:41:23.144Z,15.52
2019-05-23T07:42:23.153Z,15.57
2019-05-23T07:43:23.166Z,15.61
2019-05-23T07:44:23.175Z,15.61
2019-05-23T07:45:23.174Z,15.67
2019-05-23T07:46:23.187Z,15.66
2019-05-23T07:47:23.197Z,15.70
2019-05-23T07:48:23.204Z,15.66
2019-05-23T07:49:23.215Z,15.70
2019-05-23T07:50:23.216Z,15.66
2019-05-23T07:51:23.226Z,15.68
2019-05-23T07:52:23.236Z,15.64
2019-05-23T07:53:23.244Z,15.61
2019-05-23T07:54:23.256Z,15.74
2019-05-23T07:55:23.261Z,15.78
2019-05-23T07:56:23.272Z,15.74
2019-05-23T07:57:23.274Z,15.79
2019-05-23T07:58:23.292Z,15.79
2019-05-23T07:59:23.293Z,15.94
2019-05-23T08:00:23.301Z,15.94
2019-05-23T08:01:23.317Z,15.94
2019-05-23T08:02:25.879Z,16.01
2019-05-23T08:03:23.325Z,16.11
2019-05-23T08:04:23.343Z,16.20
2019-05-23T08:05:23.345Z,16.20
2019-05-23T08:06:23.351Z,16.30
2019-05-23T08:07:23.399Z,16.37
2019-05-23T08:08:23.376Z,16.42
2019-05-23T08:09:23.376Z,16.45
2019-05-23T08:10:33.001Z,16.50
2019-05-23T08:11:23.398Z,16.48
2019-05-23T08:12:23.416Z,16.42
2019-05-23T08:13:23.410Z,16.56
2019-05-23T08:14:23.424Z,16.50
2019-05-23T08:15:23.434Z,16.49
2019-05-23T08:16:23.442Z,16.38
2019-05-23T08:17:23.451Z,16.50
2019-05-23T08:18:23.456Z,16.38
2019-05-23T08:19:23.471Z,16.34
2019-05-23T08:20:23.479Z,16.38
2019-05-23T08:21:23.491Z,16.25
2019-05-23T08:22:23.502Z,16.23
2019-05-23T08:23:23.498Z,16.26
2019-05-23T08:24:23.518Z,16.18
2019-05-23T08:25:23.521Z,16.26
2019-05-23T08:26:23.542Z,16.38
2019-05-23T08:27:23.572Z,16.49
2019-05-23T08:28:23.548Z,16.49
2019-05-23T08:29:26.623Z,16.62
2019-05-23T08:30:23.568Z,16.80
2019-05-23T08:31:23.577Z,16.90
2019-05-23T08:32:23.587Z,17.03
2019-05-23T08:33:23.603Z,17.06
2019-05-23T08:34:40.015Z,17.22
2019-05-23T08:35:23.610Z,17.30
2019-05-23T08:36:23.620Z,17.41
2019-05-23T08:37:23.633Z,17.48
2019-05-23T08:38:23.636Z,17.53
2019-05-23T08:39:23.645Z,17.59
2019-05-23T08:40:23.676Z,17.50
2019-05-23T08:41:23.665Z,17.44
2019-05-23T08:42:23.678Z,17.43
2019-05-23T08:43:23.676Z,17.57
2019-05-23T08:44:23.695Z,17.48
2019-05-23T08:45:23.709Z,17.55
2019-05-23T08:46:23.716Z,17.50
2019-05-23T08:47:23.727Z,17.47
2019-05-23T08:48:23.731Z,17.41
2019-05-23T08:49:23.738Z,17.38
2019-05-23T08:50:24.365Z,17.28
2019-05-23T08:51:23.757Z,17.28
2019-05-23T08:52:23.767Z,17.17
2019-05-23T08:53:23.779Z,17.17
2019-05-23T08:54:23.788Z,17.22
2019-05-23T08:55:23.798Z,17.08
2019-05-23T08:56:23.813Z,17.11
2019-05-23T08:57:23.815Z,17.22
2019-05-23T08:58:23.830Z,17.20
2019-05-23T08:59:23.836Z,17.18
2019-05-23T09:00:23.858Z,17.26
2019-05-23T09:01:23.850Z,17.25
2019-05-23T09:02:23.860Z,17.25
2019-05-23T09:03:23.867Z,17.22
2019-05-23T09:04:23.875Z,17.11
2019-05-23T09:05:23.893Z,17.26
2019-05-23T09:06:23.913Z,17.14
2019-05-23T09:07:23.908Z,17.06
2019-05-23T09:08:23.918Z,17.13
2019-05-23T09:09:29.598Z,17.14
2019-05-23T09:10:23.940Z,17.06
2019-05-23T09:11:23.952Z,17.13
2019-05-23T09:12:23.966Z,17.06
2019-05-23T09:13:23.969Z,17.11
2019-05-23T09:14:23.978Z,17.17
2019-05-23T09:15:23.987Z,17.13
2019-05-23T09:16:23.989Z,17.14
2019-05-23T09:17:24.004Z,17.03
2019-05-23T09:18:24.018Z,17.10
2019-05-23T09:19:24.019Z,17.23
2019-05-23T09:20:24.030Z,17.23
2019-05-23T09:21:24.041Z,17.13
2019-05-23T09:22:24.052Z,17.22
2019-05-23T09:23:24.124Z,17.17
2019-05-23T09:24:24.073Z,17.26
2019-05-23T09:25:24.078Z,17.11
2019-05-23T09:26:24.086Z,17.08
2019-05-23T09:27:24.094Z,17.14
2019-05-23T09:28:24.114Z,17.06
2019-05-23T09:29:24.114Z,17.03
2019-05-23T09:30:24.128Z,16.89
2019-05-23T09:31:24.138Z,16.86
2019-05-23T09:32:24.145Z,16.80
2019-05-23T09:33:24.154Z,16.89
2019-05-23T09:34:24.160Z,16.90
2019-05-23T09:35:24.170Z,17.00
2019-05-23T09:36:24.179Z,16.96
2019-05-23T09:37:24.330Z,16.98
2019-05-23T09:38:24.202Z,16.99
2019-05-23T09:39:24.204Z,16.98
2019-05-23T09:40:24.222Z,16.89
2019-05-23T09:41:24.230Z,16.99
2019-05-23T09:42:24.237Z,17.00
2019-05-23T09:43:24.248Z,16.86
2019-05-23T09:44:24.257Z,16.86
2019-05-23T09:45:24.273Z,17.00
2019-05-23T09:46:24.308Z,17.00
2019-05-23T09:47:24.280Z,17.00
2019-05-23T09:48:24.296Z,17.14
2019-05-23T09:49:24.316Z,17.11
2019-05-23T09:50:24.313Z,17.08
2019-05-23T09:51:24.323Z,17.18
2019-05-23T09:52:24.331Z,17.11
2019-05-23T09:53:24.341Z,17.23
2019-05-23T09:54:24.346Z,17.22
2019-05-23T09:55:24.358Z,17.28
2019-05-23T09:56:24.366Z,17.29
2019-05-23T09:57:24.379Z,17.29
2019-05-23T09:58:24.385Z,17.41
2019-05-23T09:59:24.394Z,17.48
2019-05-23T10:00:24.408Z,17.47
2019-05-23T10:01:24.412Z,17.63
2019-05-23T10:02:24.425Z,17.67
2019-05-23T10:03:24.435Z,17.59
2019-05-23T10:04:24.442Z,17.71
2019-05-23T10:05:40.673Z,17.79
2019-05-23T10:06:24.462Z,17.85
2019-05-23T10:07:24.474Z,17.89
2019-05-23T10:08:24.483Z,17.99
2019-05-23T10:09:24.489Z,17.92
2019-05-23T10:10:24.516Z,17.99
2019-05-23T10:11:24.509Z,17.94
2019-05-23T10:12:24.516Z,17.97
2019-05-23T10:13:38.603Z,17.99
2019-05-23T10:14:24.536Z,17.95
2019-05-23T10:15:24.542Z,18.07
2019-05-23T10:16:24.558Z,18.07
2019-05-23T10:17:24.797Z,18.10
2019-05-23T10:18:24.576Z,18.27
2019-05-23T10:19:24.594Z,18.22
2019-05-23T10:20:24.593Z,18.25
2019-05-23T10:21:24.603Z,18.33
2019-05-23T10:22:24.613Z,18.31
2019-05-23T10:23:24.622Z,18.34
2019-05-23T10:24:24.631Z,18.39
2019-05-23T10:25:24.645Z,18.37
2019-05-23T10:26:24.655Z,18.33
2019-05-23T10:27:24.661Z,18.33
2019-05-23T10:28:24.671Z,18.46
2019-05-23T10:29:24.681Z,18.42
2019-05-23T10:30:24.696Z,18.28
2019-05-23T10:31:24.702Z,18.36
2019-05-23T10:32:24.713Z,18.29
2019-05-23T10:33:24.717Z,18.49
2019-05-23T10:34:24.736Z,18.50
2019-05-23T10:35:24.738Z,18.64
2019-05-23T10:36:24.750Z,18.64
2019-05-23T10:37:24.760Z,18.72
2019-05-23T10:38:24.768Z,18.70
2019-05-23T10:39:24.779Z,18.70
2019-05-23T10:40:24.792Z,18.73
2019-05-23T10:41:24.800Z,18.67
2019-05-23T10:42:24.814Z,18.72
2019-05-23T10:43:24.820Z,18.74
2019-05-23T10:44:24.829Z,18.82
2019-05-23T10:45:24.841Z,18.90
2019-05-23T10:46:24.854Z,18.95
2019-05-23T10:47:24.865Z,19.02
2019-05-23T10:48:24.884Z,19.05
2019-05-23T10:49:24.881Z,19.10
2019-05-23T10:50:24.895Z,19.01
2019-05-23T10:51:24.918Z,19.08
2019-05-23T10:52:24.917Z,19.13
2019-05-23T10:53:24.917Z,19.18
2019-05-23T10:54:24.932Z,19.32
2019-05-23T10:55:24.942Z,19.17
2019-05-23T10:56:24.994Z,19.25
2019-05-23T10:57:24.960Z,19.25
2019-05-23T10:58:25.037Z,19.20
2019-05-23T10:59:24.985Z,19.25
2019-05-23T11:00:24.998Z,19.42
2019-05-23T11:01:25.005Z,19.43
2019-05-23T11:02:27.166Z,19.42
2019-05-23T11:03:25.026Z,19.50
2019-05-23T11:04:25.033Z,19.58
2019-05-23T11:05:25.051Z,19.57
2019-05-23T11:06:25.058Z,19.63
2019-05-23T11:07:25.067Z,19.58
2019-05-23T11:08:29.076Z,19.55
2019-05-23T11:09:37.471Z,19.61
2019-05-23T11:10:25.103Z,19.75
2019-05-23T11:11:25.110Z,19.75
2019-05-23T11:12:25.121Z,19.78
2019-05-23T11:13:25.130Z,19.90
2019-05-23T11:14:25.143Z,20.02
2019-05-23T11:15:25.149Z,20.21
2019-05-23T11:16:25.161Z,20.34
2019-05-23T11:17:25.168Z,20.43
2019-05-23T11:18:25.188Z,20.50
2019-05-23T11:19:25.196Z,20.74
2019-05-23T11:20:25.212Z,20.87
2019-05-23T11:21:25.228Z,21.17
2019-05-23T11:22:25.229Z,21.44
2019-05-23T11:23:25.237Z,21.90
2019-05-23T11:24:25.252Z,22.38
2019-05-23T11:25:25.338Z,22.99
2019-05-23T11:26:25.278Z,23.57
2019-05-23T11:27:25.300Z,24.27
2019-05-23T11:28:25.303Z,24.90
2019-05-23T11:29:27.408Z,25.53
2019-05-23T11:30:25.334Z,26.15
2019-05-23T11:31:25.349Z,26.52
2019-05-23T11:32:25.368Z,27.24
2019-05-23T11:33:25.380Z,27.88
2019-05-23T11:34:25.411Z,27.61
2019-05-23T11:35:25.409Z,28.06
2019-05-23T11:36:35.574Z,28.54
2019-05-23T11:37:25.462Z,28.50
2019-05-23T11:38:25.461Z,28.88
2019-05-23T11:39:25.645Z,29.34
2019-05-23T11:40:25.495Z,29.56
2019-05-23T11:41:25.544Z,29.96
2019-05-23T11:42:25.539Z,30.37
2019-05-23T11:43:25.556Z,30.69
2019-05-23T11:44:25.581Z,30.93
2019-05-23T11:45:25.590Z,31.17
2019-05-23T11:46:25.613Z,31.49
2019-05-23T11:47:25.635Z,31.91
2019-05-23T11:48:25.650Z,32.25
2019-05-23T11:49:25.666Z,32.54
2019-05-23T11:50:25.692Z,32.98
2019-05-23T11:51:26.196Z,33.14
2019-05-23T11:52:25.730Z,33.55
2019-05-23T11:53:25.748Z,33.07
2019-05-23T11:54:25.772Z,32.79
2019-05-23T11:55:25.801Z,32.92
2019-05-23T11:56:25.821Z,32.96
2019-05-23T11:57:25.837Z,33.14
2019-05-23T11:58:25.863Z,33.39
2019-05-23T11:59:25.894Z,33.06
2019-05-23T12:00:25.904Z,33.31
2019-05-23T12:01:25.917Z,33.55
2019-05-23T12:02:25.941Z,33.65
2019-05-23T12:03:25.966Z,33.86
2019-05-23T12:04:25.984Z,33.87
2019-05-23T12:05:26.234Z,34.02
2019-05-23T12:06:26.664Z,34.20
2019-05-23T12:07:26.050Z,34.31
2019-05-23T12:08:26.081Z,34.44
2019-05-23T12:09:26.088Z,34.44
2019-05-23T12:10:26.131Z,34.58
2019-05-23T12:11:26.134Z,34.70
2019-05-23T12:12:26.161Z,34.83
2019-05-23T12:13:26.182Z,34.99
2019-05-23T12:14:26.207Z,34.99
2019-05-23T12:15:26.223Z,35.03
2019-05-23T12:16:26.259Z,35.03
2019-05-23T12:17:26.271Z,34.84
2019-05-23T12:18:26.292Z,35.03
2019-05-23T12:19:26.316Z,35.17
2019-05-23T12:20:26.329Z,35.29
2019-05-23T12:21:26.363Z,35.33
2019-05-23T12:22:26.388Z,35.54
2019-05-23T12:23:26.401Z,35.69
2019-05-23T12:24:26.428Z,35.92
2019-05-23T12:25:26.461Z,36.04
2019-05-23T12:26:26.474Z,36.20
2019-05-23T12:27:26.501Z,36.20
2019-05-23T12:28:26.521Z,36.26
2019-05-23T12:29:26.538Z,36.23
2019-05-23T12:30:26.564Z,36.23
2019-05-23T12:31:26.587Z,36.12
2019-05-23T12:32:26.609Z,35.91
2019-05-23T12:33:26.633Z,36.14
2019-05-23T12:34:26.759Z,36.33
2019-05-23T12:35:26.674Z,36.45
2019-05-23T12:36:26.703Z,36.83
2019-05-23T12:37:26.724Z,36.87
2019-05-23T12:38:26.748Z,36.77
2019-05-23T12:39:26.772Z,37.01
2019-05-23T12:40:26.793Z,37.20
2019-05-23T12:41:26.819Z,37.48
2019-05-23T12:42:26.837Z,37.50
2019-05-23T12:43:26.865Z,37.35
2019-05-23T12:44:26.889Z,37.42
2019-05-23T12:45:26.904Z,37.41
2019-05-23T12:46:26.931Z,37.46
2019-05-23T12:47:26.950Z,37.42
2019-05-23T12:48:26.977Z,37.39
2019-05-23T12:49:26.995Z,37.42
2019-05-23T12:50:27.030Z,37.38
2019-05-23T12:51:27.068Z,37.39
2019-05-23T12:52:27.064Z,37.39
2019-05-23T12:53:27.088Z,37.36
2019-05-23T12:54:27.114Z,37.50
2019-05-23T12:55:27.133Z,37.32
2019-05-23T12:56:27.156Z,37.31
2019-05-23T12:57:27.188Z,37.64
2019-05-23T12:58:27.200Z,37.80
2019-05-23T12:59:27.223Z,37.83
2019-05-23T13:00:27.249Z,37.86
2019-05-23T13:01:27.271Z,37.78
2019-05-23T13:02:27.364Z,37.67
2019-05-23T13:03:27.311Z,37.80
2019-05-23T13:04:27.335Z,37.95
2019-05-23T13:05:27.353Z,37.96
2019-05-23T13:06:27.385Z,37.92
2019-05-23T13:07:36.136Z,37.96
2019-05-23T13:08:27.436Z,37.99
2019-05-23T13:09:27.522Z,37.86
2019-05-23T13:10:27.568Z,37.77
2019-05-23T13:11:27.488Z,37.58
2019-05-23T13:12:27.516Z,37.42
2019-05-23T13:13:27.532Z,37.33
2019-05-23T13:14:27.554Z,37.17